sensor_id;sensor_type;location;lat;lon;timestamp;P1;durP1;ratioP1;P2;durP2;ratioP2
79128;SDS011;68529;43.286;23.360;2023-04-24T00:01:09;9.37;;;8.37;;
79128;SDS011;68529;43.286;23.360;2023-04-24T00:03:35;8.83;;;7.93;;
79128;SDS011;68529;43.286;23.360;2023-04-24T00:06:01;9.47;;;8.40;;
79128;SDS011;68529;43.286;23.360;2023-04-24T00:08:27;10.70;;;8.03;;
79128;SDS011;68529;43.286;23.360;2023-04-24T00:10:53;8.60;;;7.70;;
79128;SDS011;68529;43.286;23.360;2023-04-24T00:13:18;8.57;;;7.80;;
79128;SDS011;68529;43.286;23.360;2023-04-24T00:15:44;8.53;;;7.50;;
79128;SDS011;68529;43.286;23.360;2023-04-24T00:18:09;8.33;;;7.53;;
79128;SDS011;68529;43.286;23.360;2023-04-24T00:20:34;9.70;;;7.40;;
79128;SDS011;68529;43.286;23.360;2023-04-24T00:23:02;9.07;;;7.63;;
79128;SDS011;68529;43.286;23.360;2023-04-24T00:25:28;8.07;;;7.27;;
79128;SDS011;68529;43.286;23.360;2023-04-24T00:27:53;7.50;;;6.80;;
79128;SDS011;68529;43.286;23.360;2023-04-24T00:30:18;9.53;;;7.97;;
79128;SDS011;68529;43.286;23.360;2023-04-24T00:32:44;7.77;;;7.03;;
79128;SDS011;68529;43.286;23.360;2023-04-24T00:35:09;8.33;;;7.23;;
79128;SDS011;68529;43.286;23.360;2023-04-24T00:37:35;8.90;;;8.00;;
79128;SDS011;68529;43.286;23.360;2023-04-24T00:40:01;8.90;;;7.73;;
79128;SDS011;68529;43.286;23.360;2023-04-24T00:42:27;7.63;;;6.97;;
79128;SDS011;68529;43.286;23.360;2023-04-24T00:44:53;8.37;;;7.67;;
79128;SDS011;68529;43.286;23.360;2023-04-24T00:47:18;9.00;;;8.13;;
79128;SDS011;68529;43.286;23.360;2023-04-24T00:49:44;10.70;;;9.60;;
79128;SDS011;68529;43.286;23.360;2023-04-24T00:52:09;14.63;;;10.80;;
79128;SDS011;68529;43.286;23.360;2023-04-24T00:54:35;11.67;;;10.03;;
79128;SDS011;68529;43.286;23.360;2023-04-24T00:57:04;10.10;;;8.63;;
79128;SDS011;68529;43.286;23.360;2023-04-24T00:59:30;7.80;;;7.10;;
79128;SDS011;68529;43.286;23.360;2023-04-24T01:01:56;7.63;;;6.83;;
79128;SDS011;68529;43.286;23.360;2023-04-24T01:04:23;9.13;;;7.67;;
79128;SDS011;68529;43.286;23.360;2023-04-24T01:06:49;7.57;;;6.63;;
79128;SDS011;68529;43.286;23.360;2023-04-24T01:09:15;7.73;;;6.60;;
79128;SDS011;68529;43.286;23.360;2023-04-24T01:11:41;7.93;;;6.63;;
79128;SDS011;68529;43.286;23.360;2023-04-24T01:14:08;6.33;;;5.63;;
79128;SDS011;68529;43.286;23.360;2023-04-24T01:16:33;7.17;;;6.47;;
79128;SDS011;68529;43.286;23.360;2023-04-24T01:18:59;7.43;;;6.73;;
79128;SDS011;68529;43.286;23.360;2023-04-24T01:21:25;7.80;;;6.47;;
79128;SDS011;68529;43.286;23.360;2023-04-24T01:23:54;7.67;;;6.70;;
79128;SDS011;68529;43.286;23.360;2023-04-24T01:26:21;7.10;;;6.20;;
79128;SDS011;68529;43.286;23.360;2023-04-24T01:28:47;7.50;;;6.70;;
79128;SDS011;68529;43.286;23.360;2023-04-24T01:31:13;8.23;;;6.50;;
79128;SDS011;68529;43.286;23.360;2023-04-24T01:33:40;7.13;;;6.27;;
79128;SDS011;68529;43.286;23.360;2023-04-24T01:36:06;6.90;;;6.00;;
79128;SDS011;68529;43.286;23.360;2023-04-24T01:38:33;8.40;;;6.87;;
79128;SDS011;68529;43.286;23.360;2023-04-24T01:40:59;7.10;;;6.50;;
79128;SDS011;68529;43.286;23.360;2023-04-24T01:43:24;7.63;;;6.07;;
79128;SDS011;68529;43.286;23.360;2023-04-24T01:45:50;7.77;;;6.50;;
79128;SDS011;68529;43.286;23.360;2023-04-24T01:48:15;8.70;;;6.37;;
79128;SDS011;68529;43.286;23.360;2023-04-24T01:50:40;7.40;;;6.37;;
79128;SDS011;68529;43.286;23.360;2023-04-24T01:53:06;8.27;;;6.73;;
79128;SDS011;68529;43.286;23.360;2023-04-24T01:55:31;7.57;;;6.77;;
79128;SDS011;68529;43.286;23.360;2023-04-24T01:57:57;6.63;;;6.07;;
79128;SDS011;68529;43.286;23.360;2023-04-24T02:00:24;9.13;;;6.33;;
79128;SDS011;68529;43.286;23.360;2023-04-24T02:02:50;6.93;;;6.23;;
79128;SDS011;68529;43.286;23.360;2023-04-24T02:05:15;7.27;;;5.70;;
79128;SDS011;68529;43.286;23.360;2023-04-24T02:07:41;8.73;;;6.30;;
79128;SDS011;68529;43.286;23.360;2023-04-24T02:10:06;6.10;;;5.60;;
79128;SDS011;68529;43.286;23.360;2023-04-24T02:12:32;7.03;;;6.37;;
79128;SDS011;68529;43.286;23.360;2023-04-24T02:14:57;7.60;;;5.67;;
79128;SDS011;68529;43.286;23.360;2023-04-24T02:17:23;6.03;;;5.53;;
79128;SDS011;68529;43.286;23.360;2023-04-24T02:19:48;6.60;;;6.00;;
79128;SDS011;68529;43.286;23.360;2023-04-24T02:22:14;6.67;;;5.97;;
79128;SDS011;68529;43.286;23.360;2023-04-24T02:24:39;7.60;;;6.17;;
79128;SDS011;68529;43.286;23.360;2023-04-24T02:27:05;7.00;;;6.30;;
79128;SDS011;68529;43.286;23.360;2023-04-24T02:29:31;7.70;;;7.00;;
79128;SDS011;68529;43.286;23.360;2023-04-24T02:31:56;6.07;;;5.43;;
79128;SDS011;68529;43.286;23.360;2023-04-24T02:34:22;6.67;;;6.07;;
79128;SDS011;68529;43.286;23.360;2023-04-24T02:36:48;6.07;;;5.57;;
79128;SDS011;68529;43.286;23.360;2023-04-24T02:39:13;6.73;;;5.77;;
79128;SDS011;68529;43.286;23.360;2023-04-24T02:41:41;6.87;;;6.27;;
79128;SDS011;68529;43.286;23.360;2023-04-24T02:44:07;6.83;;;6.13;;
79128;SDS011;68529;43.286;23.360;2023-04-24T02:46:32;8.67;;;6.07;;
79128;SDS011;68529;43.286;23.360;2023-04-24T02:48:58;9.17;;;6.10;;
79128;SDS011;68529;43.286;23.360;2023-04-24T02:51:23;8.63;;;6.17;;
79128;SDS011;68529;43.286;23.360;2023-04-24T02:53:49;8.73;;;6.87;;
79128;SDS011;68529;43.286;23.360;2023-04-24T02:56:14;7.00;;;6.13;;
79128;SDS011;68529;43.286;23.360;2023-04-24T02:58:39;7.57;;;6.00;;
79128;SDS011;68529;43.286;23.360;2023-04-24T03:01:05;7.20;;;6.47;;
79128;SDS011;68529;43.286;23.360;2023-04-24T03:03:31;7.47;;;6.20;;
79128;SDS011;68529;43.286;23.360;2023-04-24T03:05:56;7.93;;;6.43;;
79128;SDS011;68529;43.286;23.360;2023-04-24T03:08:22;7.50;;;6.70;;
79128;SDS011;68529;43.286;23.360;2023-04-24T03:10:47;7.17;;;6.47;;
79128;SDS011;68529;43.286;23.360;2023-04-24T03:13:13;7.83;;;7.03;;
79128;SDS011;68529;43.286;23.360;2023-04-24T03:15:38;7.53;;;6.70;;
79128;SDS011;68529;43.286;23.360;2023-04-24T03:18:04;7.20;;;6.50;;
79128;SDS011;68529;43.286;23.360;2023-04-24T03:20:29;6.40;;;5.80;;
79128;SDS011;68529;43.286;23.360;2023-04-24T03:22:55;7.73;;;6.73;;
79128;SDS011;68529;43.286;23.360;2023-04-24T03:25:22;7.73;;;6.77;;
79128;SDS011;68529;43.286;23.360;2023-04-24T03:27:47;7.53;;;6.20;;
79128;SDS011;68529;43.286;23.360;2023-04-24T03:30:13;7.30;;;6.53;;
79128;SDS011;68529;43.286;23.360;2023-04-24T03:32:38;7.13;;;6.10;;
79128;SDS011;68529;43.286;23.360;2023-04-24T03:35:04;6.60;;;5.90;;
79128;SDS011;68529;43.286;23.360;2023-04-24T03:37:32;7.33;;;5.30;;
79128;SDS011;68529;43.286;23.360;2023-04-24T03:39:57;6.80;;;6.13;;
79128;SDS011;68529;43.286;23.360;2023-04-24T03:42:22;6.70;;;6.10;;
79128;SDS011;68529;43.286;23.360;2023-04-24T03:44:48;7.73;;;5.70;;
79128;SDS011;68529;43.286;23.360;2023-04-24T03:47:13;8.70;;;6.87;;
79128;SDS011;68529;43.286;23.360;2023-04-24T03:49:39;9.50;;;6.73;;
79128;SDS011;68529;43.286;23.360;2023-04-24T03:52:04;6.97;;;6.37;;
79128;SDS011;68529;43.286;23.360;2023-04-24T03:54:30;8.03;;;6.97;;
79128;SDS011;68529;43.286;23.360;2023-04-24T03:56:55;6.83;;;6.23;;
79128;SDS011;68529;43.286;23.360;2023-04-24T03:59:20;7.70;;;6.30;;
79128;SDS011;68529;43.286;23.360;2023-04-24T04:01:46;6.43;;;5.80;;
79128;SDS011;68529;43.286;23.360;2023-04-24T04:04:11;7.00;;;6.33;;
79128;SDS011;68529;43.286;23.360;2023-04-24T04:06:43;8.03;;;6.67;;
79128;SDS011;68529;43.286;23.360;2023-04-24T04:09:09;7.97;;;6.23;;
79128;SDS011;68529;43.286;23.360;2023-04-24T04:11:35;6.83;;;6.23;;
79128;SDS011;68529;43.286;23.360;2023-04-24T04:14:00;8.97;;;7.07;;
79128;SDS011;68529;43.286;23.360;2023-04-24T04:16:26;7.43;;;6.43;;
79128;SDS011;68529;43.286;23.360;2023-04-24T04:18:51;7.57;;;6.20;;
79128;SDS011;68529;43.286;23.360;2023-04-24T04:21:17;7.20;;;6.57;;
79128;SDS011;68529;43.286;23.360;2023-04-24T04:23:42;7.60;;;6.60;;
79128;SDS011;68529;43.286;23.360;2023-04-24T04:26:07;6.57;;;5.93;;
79128;SDS011;68529;43.286;23.360;2023-04-24T04:28:33;7.87;;;6.30;;
79128;SDS011;68529;43.286;23.360;2023-04-24T04:30:58;7.27;;;6.40;;
79128;SDS011;68529;43.286;23.360;2023-04-24T04:33:24;8.40;;;7.00;;
79128;SDS011;68529;43.286;23.360;2023-04-24T04:35:50;9.77;;;6.27;;
79128;SDS011;68529;43.286;23.360;2023-04-24T04:38:18;6.77;;;6.10;;
79128;SDS011;68529;43.286;23.360;2023-04-24T04:40:44;7.03;;;6.37;;
79128;SDS011;68529;43.286;23.360;2023-04-24T04:43:11;6.80;;;6.10;;
79128;SDS011;68529;43.286;23.360;2023-04-24T04:45:38;7.83;;;6.83;;
79128;SDS011;68529;43.286;23.360;2023-04-24T04:48:05;8.53;;;6.70;;
79128;SDS011;68529;43.286;23.360;2023-04-24T04:50:32;7.33;;;6.63;;
79128;SDS011;68529;43.286;23.360;2023-04-24T04:52:57;6.80;;;6.20;;
79128;SDS011;68529;43.286;23.360;2023-04-24T04:55:23;7.17;;;6.47;;
79128;SDS011;68529;43.286;23.360;2023-04-24T04:57:48;8.27;;;6.60;;
79128;SDS011;68529;43.286;23.360;2023-04-24T05:00:14;9.63;;;6.50;;
79128;SDS011;68529;43.286;23.360;2023-04-24T05:02:40;7.27;;;6.53;;
79128;SDS011;68529;43.286;23.360;2023-04-24T05:05:06;8.43;;;7.63;;
79128;SDS011;68529;43.286;23.360;2023-04-24T05:07:32;16.40;;;14.97;;
79128;SDS011;68529;43.286;23.360;2023-04-24T05:09:58;7.10;;;6.50;;
79128;SDS011;68529;43.286;23.360;2023-04-24T05:12:23;9.23;;;6.77;;
79128;SDS011;68529;43.286;23.360;2023-04-24T05:14:49;7.03;;;6.43;;
79128;SDS011;68529;43.286;23.360;2023-04-24T05:17:14;7.00;;;6.40;;
79128;SDS011;68529;43.286;23.360;2023-04-24T05:19:40;8.30;;;7.50;;
79128;SDS011;68529;43.286;23.360;2023-04-24T05:22:05;7.57;;;6.70;;
79128;SDS011;68529;43.286;23.360;2023-04-24T05:24:35;10.83;;;8.27;;
79128;SDS011;68529;43.286;23.360;2023-04-24T05:27:01;9.10;;;6.80;;
79128;SDS011;68529;43.286;23.360;2023-04-24T05:29:27;6.90;;;6.20;;
79128;SDS011;68529;43.286;23.360;2023-04-24T05:31:55;9.70;;;8.80;;
79128;SDS011;68529;43.286;23.360;2023-04-24T05:34:21;10.40;;;8.93;;
79128;SDS011;68529;43.286;23.360;2023-04-24T05:36:46;9.93;;;9.03;;
79128;SDS011;68529;43.286;23.360;2023-04-24T05:39:13;10.20;;;9.00;;
79128;SDS011;68529;43.286;23.360;2023-04-24T05:41:38;7.00;;;6.40;;
79128;SDS011;68529;43.286;23.360;2023-04-24T05:44:04;6.40;;;5.80;;
79128;SDS011;68529;43.286;23.360;2023-04-24T05:46:29;6.87;;;6.27;;
79128;SDS011;68529;43.286;23.360;2023-04-24T05:48:55;7.47;;;5.97;;
79128;SDS011;68529;43.286;23.360;2023-04-24T05:51:20;7.90;;;7.13;;
79128;SDS011;68529;43.286;23.360;2023-04-24T05:53:46;7.17;;;6.57;;
79128;SDS011;68529;43.286;23.360;2023-04-24T05:56:11;7.70;;;6.90;;
79128;SDS011;68529;43.286;23.360;2023-04-24T05:58:36;8.97;;;8.13;;
79128;SDS011;68529;43.286;23.360;2023-04-24T06:01:02;6.50;;;5.83;;
79128;SDS011;68529;43.286;23.360;2023-04-24T06:03:28;8.83;;;8.03;;
79128;SDS011;68529;43.286;23.360;2023-04-24T06:05:53;8.80;;;7.90;;
79128;SDS011;68529;43.286;23.360;2023-04-24T06:08:19;7.10;;;6.50;;
79128;SDS011;68529;43.286;23.360;2023-04-24T06:10:45;8.40;;;7.00;;
79128;SDS011;68529;43.286;23.360;2023-04-24T06:13:10;10.03;;;9.07;;
79128;SDS011;68529;43.286;23.360;2023-04-24T06:15:37;8.43;;;7.23;;
79128;SDS011;68529;43.286;23.360;2023-04-24T06:18:03;9.00;;;8.20;;
79128;SDS011;68529;43.286;23.360;2023-04-24T06:20:28;8.63;;;7.57;;
79128;SDS011;68529;43.286;23.360;2023-04-24T06:22:54;8.77;;;8.07;;
79128;SDS011;68529;43.286;23.360;2023-04-24T06:25:19;7.93;;;7.20;;
79128;SDS011;68529;43.286;23.360;2023-04-24T06:27:45;11.00;;;7.57;;
79128;SDS011;68529;43.286;23.360;2023-04-24T06:30:11;8.83;;;7.97;;
79128;SDS011;68529;43.286;23.360;2023-04-24T06:32:36;9.20;;;7.50;;
79128;SDS011;68529;43.286;23.360;2023-04-24T06:35:02;11.50;;;10.30;;
79128;SDS011;68529;43.286;23.360;2023-04-24T06:37:28;9.10;;;8.10;;
79128;SDS011;68529;43.286;23.360;2023-04-24T06:39:54;7.73;;;6.93;;
79128;SDS011;68529;43.286;23.360;2023-04-24T06:42:19;10.40;;;7.93;;
79128;SDS011;68529;43.286;23.360;2023-04-24T06:44:49;8.43;;;7.57;;
79128;SDS011;68529;43.286;23.360;2023-04-24T06:47:15;8.53;;;7.73;;
79128;SDS011;68529;43.286;23.360;2023-04-24T06:49:40;9.10;;;8.10;;
79128;SDS011;68529;43.286;23.360;2023-04-24T06:52:06;8.60;;;7.73;;
79128;SDS011;68529;43.286;23.360;2023-04-24T06:54:32;7.87;;;7.17;;
79128;SDS011;68529;43.286;23.360;2023-04-24T06:56:58;7.37;;;6.63;;
79128;SDS011;68529;43.286;23.360;2023-04-24T06:59:24;8.63;;;7.67;;
79128;SDS011;68529;43.286;23.360;2023-04-24T07:01:49;8.33;;;7.60;;
79128;SDS011;68529;43.286;23.360;2023-04-24T07:04:16;8.17;;;7.13;;
79128;SDS011;68529;43.286;23.360;2023-04-24T07:06:42;8.93;;;7.53;;
79128;SDS011;68529;43.286;23.360;2023-04-24T07:09:08;8.77;;;7.57;;
79128;SDS011;68529;43.286;23.360;2023-04-24T07:11:34;9.30;;;8.23;;
79128;SDS011;68529;43.286;23.360;2023-04-24T07:14:00;8.07;;;7.27;;
79128;SDS011;68529;43.286;23.360;2023-04-24T07:16:25;7.10;;;6.50;;
79128;SDS011;68529;43.286;23.360;2023-04-24T07:18:51;6.50;;;5.83;;
79128;SDS011;68529;43.286;23.360;2023-04-24T07:21:17;6.63;;;6.03;;
79128;SDS011;68529;43.286;23.360;2023-04-24T07:23:42;6.47;;;5.90;;
79128;SDS011;68529;43.286;23.360;2023-04-24T07:26:08;7.63;;;6.40;;
79128;SDS011;68529;43.286;23.360;2023-04-24T07:28:33;7.80;;;6.40;;
79128;SDS011;68529;43.286;23.360;2023-04-24T07:30:58;10.03;;;6.80;;
79128;SDS011;68529;43.286;23.360;2023-04-24T07:33:25;8.13;;;6.50;;
79128;SDS011;68529;43.286;23.360;2023-04-24T07:35:51;7.40;;;6.70;;
79128;SDS011;68529;43.286;23.360;2023-04-24T07:38:17;6.80;;;6.20;;
79128;SDS011;68529;43.286;23.360;2023-04-24T07:40:46;6.57;;;5.97;;
79128;SDS011;68529;43.286;23.360;2023-04-24T07:43:11;6.60;;;6.00;;
79128;SDS011;68529;43.286;23.360;2023-04-24T07:45:36;7.40;;;6.77;;
79128;SDS011;68529;43.286;23.360;2023-04-24T07:48:02;8.23;;;7.10;;
79128;SDS011;68529;43.286;23.360;2023-04-24T07:50:28;7.50;;;6.80;;
79128;SDS011;68529;43.286;23.360;2023-04-24T07:52:53;11.83;;;7.33;;
79128;SDS011;68529;43.286;23.360;2023-04-24T07:55:19;7.53;;;6.83;;
79128;SDS011;68529;43.286;23.360;2023-04-24T07:57:45;11.37;;;8.90;;
79128;SDS011;68529;43.286;23.360;2023-04-24T08:00:10;11.93;;;8.77;;
79128;SDS011;68529;43.286;23.360;2023-04-24T08:02:36;10.60;;;9.50;;
79128;SDS011;68529;43.286;23.360;2023-04-24T08:05:02;10.37;;;9.37;;
79128;SDS011;68529;43.286;23.360;2023-04-24T08:07:28;9.07;;;8.23;;
79128;SDS011;68529;43.286;23.360;2023-04-24T08:09:54;9.30;;;8.07;;
79128;SDS011;68529;43.286;23.360;2023-04-24T08:12:19;10.77;;;8.00;;
79128;SDS011;68529;43.286;23.360;2023-04-24T08:14:45;10.63;;;8.17;;
79128;SDS011;68529;43.286;23.360;2023-04-24T08:17:10;8.67;;;7.87;;
79128;SDS011;68529;43.286;23.360;2023-04-24T08:19:36;9.40;;;8.50;;
79128;SDS011;68529;43.286;23.360;2023-04-24T08:22:01;10.60;;;8.43;;
79128;SDS011;68529;43.286;23.360;2023-04-24T08:24:29;8.37;;;7.53;;
79128;SDS011;68529;43.286;23.360;2023-04-24T08:26:54;8.60;;;7.33;;
79128;SDS011;68529;43.286;23.360;2023-04-24T08:29:21;8.87;;;8.00;;
79128;SDS011;68529;43.286;23.360;2023-04-24T08:31:47;9.07;;;8.03;;
79128;SDS011;68529;43.286;23.360;2023-04-24T08:34:12;8.97;;;8.17;;
79128;SDS011;68529;43.286;23.360;2023-04-24T08:36:38;10.00;;;8.17;;
79128;SDS011;68529;43.286;23.360;2023-04-24T08:39:05;7.63;;;6.90;;
79128;SDS011;68529;43.286;23.360;2023-04-24T08:41:31;8.20;;;7.40;;
79128;SDS011;68529;43.286;23.360;2023-04-24T08:43:59;9.10;;;8.20;;
79128;SDS011;68529;43.286;23.360;2023-04-24T08:46:26;9.17;;;8.27;;
79128;SDS011;68529;43.286;23.360;2023-04-24T08:48:52;8.53;;;7.83;;
79128;SDS011;68529;43.286;23.360;2023-04-24T08:51:18;9.17;;;8.27;;
79128;SDS011;68529;43.286;23.360;2023-04-24T08:53:45;7.80;;;6.93;;
79128;SDS011;68529;43.286;23.360;2023-04-24T08:56:11;7.68;;;6.82;;
79128;SDS011;68529;43.286;23.360;2023-04-24T08:58:37;8.70;;;8.00;;
79128;SDS011;68529;43.286;23.360;2023-04-24T09:01:03;9.55;;;8.55;;
79128;SDS011;68529;43.286;23.360;2023-04-24T09:03:30;8.65;;;7.85;;
79128;SDS011;68529;43.286;23.360;2023-04-24T09:05:56;8.73;;;7.93;;
79128;SDS011;68529;43.286;23.360;2023-04-24T09:08:23;8.70;;;7.90;;
79128;SDS011;68529;43.286;23.360;2023-04-24T09:10:50;9.30;;;8.50;;
79128;SDS011;68529;43.286;23.360;2023-04-24T09:13:15;8.20;;;7.50;;
79128;SDS011;68529;43.286;23.360;2023-04-24T09:15:41;8.45;;;7.57;;
79128;SDS011;68529;43.286;23.360;2023-04-24T09:18:07;12.48;;;8.20;;
79128;SDS011;68529;43.286;23.360;2023-04-24T09:20:33;9.32;;;8.35;;
79128;SDS011;68529;43.286;23.360;2023-04-24T09:23:00;10.57;;;9.52;;
79128;SDS011;68529;43.286;23.360;2023-04-24T09:25:31;10.27;;;9.27;;
79128;SDS011;68529;43.286;23.360;2023-04-24T09:28:02;8.32;;;7.43;;
79128;SDS011;68529;43.286;23.360;2023-04-24T09:30:29;12.02;;;9.68;;
79128;SDS011;68529;43.286;23.360;2023-04-24T09:33:14;9.40;;;8.23;;
79128;SDS011;68529;43.286;23.360;2023-04-24T09:35:50;6.97;;;6.45;;
79128;SDS011;68529;43.286;23.360;2023-04-24T09:38:16;8.38;;;7.25;;
79128;SDS011;68529;43.286;23.360;2023-04-24T09:40:42;9.20;;;8.30;;
79128;SDS011;68529;43.286;23.360;2023-04-24T09:43:10;9.30;;;7.55;;
79128;SDS011;68529;43.286;23.360;2023-04-24T09:45:37;8.38;;;7.57;;
79128;SDS011;68529;43.286;23.360;2023-04-24T09:48:04;6.60;;;6.10;;
79128;SDS011;68529;43.286;23.360;2023-04-24T09:50:31;7.68;;;6.80;;
79128;SDS011;68529;43.286;23.360;2023-04-24T09:52:58;6.95;;;6.05;;
79128;SDS011;68529;43.286;23.360;2023-04-24T09:55:26;7.53;;;6.28;;
79128;SDS011;68529;43.286;23.360;2023-04-24T09:57:52;7.13;;;6.50;;
79128;SDS011;68529;43.286;23.360;2023-04-24T10:00:31;5.82;;;5.32;;
79128;SDS011;68529;43.286;23.360;2023-04-24T10:03:01;6.70;;;5.90;;
79128;SDS011;68529;43.286;23.360;2023-04-24T10:07:57;6.10;;;5.60;;
79128;SDS011;68529;43.286;23.360;2023-04-24T10:10:25;6.35;;;5.80;;
79128;SDS011;68529;43.286;23.360;2023-04-24T10:12:51;6.68;;;5.70;;
79128;SDS011;68529;43.286;23.360;2023-04-24T10:15:17;5.80;;;5.30;;
79128;SDS011;68529;43.286;23.360;2023-04-24T10:17:46;6.07;;;5.40;;
79128;SDS011;68529;43.286;23.360;2023-04-24T10:20:17;6.00;;;5.40;;
79128;SDS011;68529;43.286;23.360;2023-04-24T10:22:44;5.78;;;5.28;;
79128;SDS011;68529;43.286;23.360;2023-04-24T10:25:14;6.30;;;5.70;;
79128;SDS011;68529;43.286;23.360;2023-04-24T10:27:42;5.63;;;5.15;;
79128;SDS011;68529;43.286;23.360;2023-04-24T10:30:08;5.38;;;4.90;;
79128;SDS011;68529;43.286;23.360;2023-04-24T10:32:36;5.57;;;5.07;;
79128;SDS011;68529;43.286;23.360;2023-04-24T10:35:01;5.78;;;5.07;;
79128;SDS011;68529;43.286;23.360;2023-04-24T10:37:27;6.88;;;4.72;;
79128;SDS011;68529;43.286;23.360;2023-04-24T10:39:53;6.05;;;4.35;;
79128;SDS011;68529;43.286;23.360;2023-04-24T10:42:21;5.00;;;4.60;;
79128;SDS011;68529;43.286;23.360;2023-04-24T10:44:47;5.25;;;4.28;;
79128;SDS011;68529;43.286;23.360;2023-04-24T10:47:14;6.38;;;5.25;;
79128;SDS011;68529;43.286;23.360;2023-04-24T10:49:39;4.70;;;4.03;;
79128;SDS011;68529;43.286;23.360;2023-04-24T10:52:05;4.63;;;4.22;;
79128;SDS011;68529;43.286;23.360;2023-04-24T10:54:35;5.07;;;4.50;;
79128;SDS011;68529;43.286;23.360;2023-04-24T10:59:49;4.60;;;3.88;;
79128;SDS011;68529;43.286;23.360;2023-04-24T11:02:16;4.55;;;4.05;;
79128;SDS011;68529;43.286;23.360;2023-04-24T11:04:42;5.00;;;3.90;;
79128;SDS011;68529;43.286;23.360;2023-04-24T11:07:08;4.55;;;4.15;;
79128;SDS011;68529;43.286;23.360;2023-04-24T11:09:35;6.78;;;5.28;;
79128;SDS011;68529;43.286;23.360;2023-04-24T11:14:53;5.72;;;4.55;;
79128;SDS011;68529;43.286;23.360;2023-04-24T11:19:52;6.13;;;4.47;;
79128;SDS011;68529;43.286;23.360;2023-04-24T11:22:26;5.45;;;4.90;;
79128;SDS011;68529;43.286;23.360;2023-04-24T11:24:56;6.25;;;5.45;;
79128;SDS011;68529;43.286;23.360;2023-04-24T11:27:21;7.07;;;5.80;;
79128;SDS011;68529;43.286;23.360;2023-04-24T11:29:48;7.70;;;5.72;;
79128;SDS011;68529;43.286;23.360;2023-04-24T11:35:06;6.65;;;6.15;;
79128;SDS011;68529;43.286;23.360;2023-04-24T11:37:37;6.50;;;5.50;;
79128;SDS011;68529;43.286;23.360;2023-04-24T11:40:07;7.65;;;6.85;;
79128;SDS011;68529;43.286;23.360;2023-04-24T11:42:35;6.72;;;6.13;;
79128;SDS011;68529;43.286;23.360;2023-04-24T11:45:01;6.22;;;5.63;;
79128;SDS011;68529;43.286;23.360;2023-04-24T11:47:27;6.97;;;5.88;;
79128;SDS011;68529;43.286;23.360;2023-04-24T11:49:57;6.15;;;5.65;;
79128;SDS011;68529;43.286;23.360;2023-04-24T11:52:23;6.07;;;5.57;;
79128;SDS011;68529;43.286;23.360;2023-04-24T11:54:49;7.07;;;6.13;;
79128;SDS011;68529;43.286;23.360;2023-04-24T11:57:15;7.13;;;5.90;;
79128;SDS011;68529;43.286;23.360;2023-04-24T11:59:41;6.30;;;5.70;;
79128;SDS011;68529;43.286;23.360;2023-04-24T12:02:06;6.20;;;5.50;;
79128;SDS011;68529;43.286;23.360;2023-04-24T12:04:39;6.03;;;5.43;;
79128;SDS011;68529;43.286;23.360;2023-04-24T12:07:05;6.07;;;5.50;;
79128;SDS011;68529;43.286;23.360;2023-04-24T12:09:46;7.95;;;5.82;;
79128;SDS011;68529;43.286;23.360;2023-04-24T12:12:13;6.15;;;5.55;;
79128;SDS011;68529;43.286;23.360;2023-04-24T12:14:55;6.28;;;5.68;;
79128;SDS011;68529;43.286;23.360;2023-04-24T12:17:29;6.18;;;4.95;;
79128;SDS011;68529;43.286;23.360;2023-04-24T12:20:06;6.05;;;5.45;;
79128;SDS011;68529;43.286;23.360;2023-04-24T12:22:45;6.45;;;5.55;;
79128;SDS011;68529;43.286;23.360;2023-04-24T12:25:12;6.65;;;6.05;;
79128;SDS011;68529;43.286;23.360;2023-04-24T12:27:41;8.48;;;5.70;;
79128;SDS011;68529;43.286;23.360;2023-04-24T12:30:10;6.18;;;5.68;;
79128;SDS011;68529;43.286;23.360;2023-04-24T12:32:40;6.13;;;5.53;;
79128;SDS011;68529;43.286;23.360;2023-04-24T12:35:10;6.95;;;5.32;;
79128;SDS011;68529;43.286;23.360;2023-04-24T12:37:36;6.13;;;5.53;;
79128;SDS011;68529;43.286;23.360;2023-04-24T12:42:32;6.05;;;5.45;;
79128;SDS011;68529;43.286;23.360;2023-04-24T12:44:59;6.78;;;5.10;;
79128;SDS011;68529;43.286;23.360;2023-04-24T12:47:29;5.57;;;5.07;;
79128;SDS011;68529;43.286;23.360;2023-04-24T12:49:55;5.82;;;5.32;;
79128;SDS011;68529;43.286;23.360;2023-04-24T12:52:24;5.93;;;5.45;;
79128;SDS011;68529;43.286;23.360;2023-04-24T12:54:53;7.60;;;5.70;;
79128;SDS011;68529;43.286;23.360;2023-04-24T12:57:20;7.32;;;6.25;;
79128;SDS011;68529;43.286;23.360;2023-04-24T12:59:46;7.57;;;6.72;;
79128;SDS011;68529;43.286;23.360;2023-04-24T13:02:11;6.82;;;6.22;;
79128;SDS011;68529;43.286;23.360;2023-04-24T13:04:37;7.05;;;6.53;;
79128;SDS011;68529;43.286;23.360;2023-04-24T13:07:03;7.20;;;6.45;;
79128;SDS011;68529;43.286;23.360;2023-04-24T13:09:30;6.28;;;5.68;;
79128;SDS011;68529;43.286;23.360;2023-04-24T13:11:55;7.80;;;6.93;;
79128;SDS011;68529;43.286;23.360;2023-04-24T13:14:21;7.22;;;6.53;;
79128;SDS011;68529;43.286;23.360;2023-04-24T13:16:47;7.90;;;7.20;;
79128;SDS011;68529;43.286;23.360;2023-04-24T13:19:13;8.68;;;6.43;;
79128;SDS011;68529;43.286;23.360;2023-04-24T13:21:38;8.07;;;7.13;;
79128;SDS011;68529;43.286;23.360;2023-04-24T13:24:04;7.13;;;6.53;;
79128;SDS011;68529;43.286;23.360;2023-04-24T13:26:30;8.15;;;7.00;;
79128;SDS011;68529;43.286;23.360;2023-04-24T13:28:56;8.15;;;7.35;;
79128;SDS011;68529;43.286;23.360;2023-04-24T13:31:21;8.52;;;7.63;;
79128;SDS011;68529;43.286;23.360;2023-04-24T13:33:47;7.80;;;7.00;;
79128;SDS011;68529;43.286;23.360;2023-04-24T13:36:12;7.70;;;6.90;;
79128;SDS011;68529;43.286;23.360;2023-04-24T13:38:38;6.95;;;6.13;;
79128;SDS011;68529;43.286;23.360;2023-04-24T13:41:03;6.93;;;6.30;;
79128;SDS011;68529;43.286;23.360;2023-04-24T13:43:29;7.55;;;6.85;;
79128;SDS011;68529;43.286;23.360;2023-04-24T13:45:54;6.88;;;6.20;;
79128;SDS011;68529;43.286;23.360;2023-04-24T13:48:20;6.50;;;5.90;;
79128;SDS011;68529;43.286;23.360;2023-04-24T13:50:45;6.72;;;6.15;;
79128;SDS011;68529;43.286;23.360;2023-04-24T13:53:13;8.60;;;7.68;;
79128;SDS011;68529;43.286;23.360;2023-04-24T13:55:38;7.35;;;6.65;;
79128;SDS011;68529;43.286;23.360;2023-04-24T13:58:04;7.30;;;6.70;;
79128;SDS011;68529;43.286;23.360;2023-04-24T14:00:29;9.07;;;6.53;;
79128;SDS011;68529;43.286;23.360;2023-04-24T14:02:56;8.00;;;7.20;;
79128;SDS011;68529;43.286;23.360;2023-04-24T14:05:21;9.15;;;7.85;;
79128;SDS011;68529;43.286;23.360;2023-04-24T14:07:47;9.18;;;7.90;;
79128;SDS011;68529;43.286;23.360;2023-04-24T14:10:12;8.65;;;7.95;;
79128;SDS011;68529;43.286;23.360;2023-04-24T14:12:38;8.90;;;7.75;;
79128;SDS011;68529;43.286;23.360;2023-04-24T14:15:03;8.18;;;7.43;;
79128;SDS011;68529;43.286;23.360;2023-04-24T14:17:30;8.23;;;7.43;;
79128;SDS011;68529;43.286;23.360;2023-04-24T14:19:55;9.63;;;8.07;;
79128;SDS011;68529;43.286;23.360;2023-04-24T14:22:21;8.93;;;8.05;;
79128;SDS011;68529;43.286;23.360;2023-04-24T14:24:47;7.72;;;7.07;;
79128;SDS011;68529;43.286;23.360;2023-04-24T14:27:13;7.78;;;7.00;;
79128;SDS011;68529;43.286;23.360;2023-04-24T14:29:38;7.50;;;6.80;;
79128;SDS011;68529;43.286;23.360;2023-04-24T14:32:03;7.45;;;6.85;;
79128;SDS011;68529;43.286;23.360;2023-04-24T14:34:29;7.20;;;6.50;;
79128;SDS011;68529;43.286;23.360;2023-04-24T14:36:54;8.27;;;6.35;;
79128;SDS011;68529;43.286;23.360;2023-04-24T14:39:20;6.88;;;6.38;;
79128;SDS011;68529;43.286;23.360;2023-04-24T14:41:45;6.30;;;5.68;;
79128;SDS011;68529;43.286;23.360;2023-04-24T14:44:11;6.55;;;5.80;;